sensor_id;sensor_type;location;lat;lon;timestamp;P1;durP1;ratioP1;P2;durP2;ratioP2
22557;SDS011;11445;53.816;8.902;2023-06-10T00:01:59;10.10;;;4.13;;
22557;SDS011;11445;53.816;8.902;2023-06-10T00:04:26;10.15;;;4.47;;
22557;SDS011;11445;53.816;8.902;2023-06-10T00:06:53;11.00;;;4.20;;
22557;SDS011;11445;53.816;8.902;2023-06-10T00:09:23;10.40;;;4.18;;
22557;SDS011;11445;53.816;8.902;2023-06-10T00:11:50;13.85;;;4.15;;
22557;SDS011;11445;53.816;8.902;2023-06-10T00:14:18;12.98;;;4.45;;
22557;SDS011;11445;53.816;8.902;2023-06-10T00:16:45;10.25;;;4.60;;
22557;SDS011;11445;53.816;8.902;2023-06-10T00:19:12;14.07;;;4.95;;
22557;SDS011;11445;53.816;8.902;2023-06-10T00:21:40;14.15;;;4.68;;
22557;SDS011;11445;53.816;8.902;2023-06-10T00:24:10;12.02;;;4.72;;
22557;SDS011;11445;53.816;8.902;2023-06-10T00:26:39;9.38;;;4.35;;
22557;SDS011;11445;53.816;8.902;2023-06-10T00:29:07;14.75;;;4.20;;
22557;SDS011;11445;53.816;8.902;2023-06-10T00:31:34;11.00;;;4.47;;
22557;SDS011;11445;53.816;8.902;2023-06-10T00:34:01;15.75;;;4.82;;
22557;SDS011;11445;53.816;8.902;2023-06-10T00:36:28;8.13;;;3.85;;
22557;SDS011;11445;53.816;8.902;2023-06-10T00:38:55;11.93;;;4.53;;
22557;SDS011;11445;53.816;8.902;2023-06-10T00:41:22;13.63;;;4.47;;
22557;SDS011;11445;53.816;8.902;2023-06-10T00:43:52;16.15;;;5.15;;
22557;SDS011;11445;53.816;8.902;2023-06-10T00:46:20;9.85;;;4.57;;
22557;SDS011;11445;53.816;8.902;2023-06-10T00:48:48;7.68;;;4.63;;
22557;SDS011;11445;53.816;8.902;2023-06-10T00:51:16;7.78;;;4.55;;
22557;SDS011;11445;53.816;8.902;2023-06-10T00:53:43;14.88;;;4.45;;
22557;SDS011;11445;53.816;8.902;2023-06-10T00:56:11;9.85;;;4.85;;
22557;SDS011;11445;53.816;8.902;2023-06-10T00:58:40;15.40;;;4.78;;
22557;SDS011;11445;53.816;8.902;2023-06-10T01:01:09;11.77;;;4.80;;
22557;SDS011;11445;53.816;8.902;2023-06-10T01:03:36;13.73;;;4.50;;
22557;SDS011;11445;53.816;8.902;2023-06-10T01:06:06;10.05;;;5.03;;
22557;SDS011;11445;53.816;8.902;2023-06-10T01:08:44;13.27;;;4.72;;
22557;SDS011;11445;53.816;8.902;2023-06-10T01:11:17;11.32;;;5.20;;
22557;SDS011;11445;53.816;8.902;2023-06-10T01:13:50;14.35;;;5.22;;
22557;SDS011;11445;53.816;8.902;2023-06-10T01:16:19;15.48;;;4.82;;
22557;SDS011;11445;53.816;8.902;2023-06-10T01:18:46;8.57;;;4.65;;
22557;SDS011;11445;53.816;8.902;2023-06-10T01:21:18;16.52;;;5.40;;
22557;SDS011;11445;53.816;8.902;2023-06-10T01:23:46;10.85;;;5.07;;
22557;SDS011;11445;53.816;8.902;2023-06-10T01:26:14;13.05;;;5.43;;
22557;SDS011;11445;53.816;8.902;2023-06-10T01:28:44;10.60;;;4.25;;
22557;SDS011;11445;53.816;8.902;2023-06-10T01:31:16;12.10;;;5.07;;
22557;SDS011;11445;53.816;8.902;2023-06-10T01:33:48;10.00;;;4.68;;
22557;SDS011;11445;53.816;8.902;2023-06-10T01:36:19;8.48;;;4.57;;
22557;SDS011;11445;53.816;8.902;2023-06-10T01:38:48;12.27;;;4.97;;
22557;SDS011;11445;53.816;8.902;2023-06-10T01:41:17;12.48;;;5.60;;
22557;SDS011;11445;53.816;8.902;2023-06-10T01:43:46;10.02;;;4.50;;
22557;SDS011;11445;53.816;8.902;2023-06-10T01:46:14;15.95;;;4.75;;
22557;SDS011;11445;53.816;8.902;2023-06-10T01:48:44;12.23;;;5.20;;
22557;SDS011;11445;53.816;8.902;2023-06-10T01:51:11;10.30;;;4.60;;
22557;SDS011;11445;53.816;8.902;2023-06-10T01:53:40;11.25;;;4.95;;
22557;SDS011;11445;53.816;8.902;2023-06-10T01:56:07;14.02;;;5.00;;
22557;SDS011;11445;53.816;8.902;2023-06-10T01:58:34;13.15;;;4.88;;
22557;SDS011;11445;53.816;8.902;2023-06-10T02:01:02;9.82;;;4.78;;
22557;SDS011;11445;53.816;8.902;2023-06-10T02:03:29;13.05;;;5.18;;
22557;SDS011;11445;53.816;8.902;2023-06-10T02:05:56;17.08;;;5.55;;
22557;SDS011;11445;53.816;8.902;2023-06-10T02:08:23;9.82;;;3.97;;
22557;SDS011;11445;53.816;8.902;2023-06-10T02:10:51;13.23;;;4.55;;
22557;SDS011;11445;53.816;8.902;2023-06-10T02:13:18;14.45;;;5.55;;
22557;SDS011;11445;53.816;8.902;2023-06-10T02:15:45;19.23;;;4.57;;
22557;SDS011;11445;53.816;8.902;2023-06-10T02:18:12;14.05;;;5.03;;
22557;SDS011;11445;53.816;8.902;2023-06-10T02:20:39;10.48;;;4.57;;
22557;SDS011;11445;53.816;8.902;2023-06-10T02:23:07;9.40;;;4.50;;
22557;SDS011;11445;53.816;8.902;2023-06-10T02:25:34;11.02;;;4.88;;
22557;SDS011;11445;53.816;8.902;2023-06-10T02:28:02;11.32;;;5.43;;
22557;SDS011;11445;53.816;8.902;2023-06-10T02:30:30;15.77;;;5.10;;
22557;SDS011;11445;53.816;8.902;2023-06-10T02:32:57;9.60;;;4.25;;
22557;SDS011;11445;53.816;8.902;2023-06-10T02:35:24;9.88;;;4.80;;
22557;SDS011;11445;53.816;8.902;2023-06-10T02:37:51;13.80;;;5.13;;
22557;SDS011;11445;53.816;8.902;2023-06-10T02:40:18;11.93;;;5.07;;
22557;SDS011;11445;53.816;8.902;2023-06-10T02:42:45;7.68;;;4.60;;
22557;SDS011;11445;53.816;8.902;2023-06-10T02:45:14;27.65;;;5.93;;
22557;SDS011;11445;53.816;8.902;2023-06-10T02:47:41;11.85;;;5.43;;
22557;SDS011;11445;53.816;8.902;2023-06-10T02:50:09;15.27;;;5.10;;
22557;SDS011;11445;53.816;8.902;2023-06-10T02:52:36;10.80;;;5.05;;
22557;SDS011;11445;53.816;8.902;2023-06-10T02:55:03;9.95;;;4.75;;
22557;SDS011;11445;53.816;8.902;2023-06-10T02:57:31;10.43;;;5.15;;
22557;SDS011;11445;53.816;8.902;2023-06-10T02:59:58;14.75;;;5.20;;
22557;SDS011;11445;53.816;8.902;2023-06-10T03:02:28;13.55;;;4.85;;
22557;SDS011;11445;53.816;8.902;2023-06-10T03:04:56;9.65;;;4.95;;
22557;SDS011;11445;53.816;8.902;2023-06-10T03:07:24;9.05;;;5.45;;
22557;SDS011;11445;53.816;8.902;2023-06-10T03:09:51;9.88;;;5.18;;
22557;SDS011;11445;53.816;8.902;2023-06-10T03:12:18;11.65;;;5.40;;
22557;SDS011;11445;53.816;8.902;2023-06-10T03:14:45;11.25;;;4.65;;
22557;SDS011;11445;53.816;8.902;2023-06-10T03:17:12;6.55;;;4.65;;
22557;SDS011;11445;53.816;8.902;2023-06-10T03:19:41;8.43;;;4.70;;
22557;SDS011;11445;53.816;8.902;2023-06-10T03:22:08;13.20;;;5.43;;
22557;SDS011;11445;53.816;8.902;2023-06-10T03:24:36;12.15;;;4.68;;
22557;SDS011;11445;53.816;8.902;2023-06-10T03:27:05;9.18;;;4.28;;
22557;SDS011;11445;53.816;8.902;2023-06-10T03:29:33;9.65;;;4.45;;
22557;SDS011;11445;53.816;8.902;2023-06-10T03:32:00;12.48;;;4.63;;
22557;SDS011;11445;53.816;8.902;2023-06-10T03:34:27;13.70;;;5.00;;
22557;SDS011;11445;53.816;8.902;2023-06-10T03:36:56;12.20;;;4.53;;
22557;SDS011;11445;53.816;8.902;2023-06-10T03:39:23;10.60;;;5.05;;
22557;SDS011;11445;53.816;8.902;2023-06-10T03:41:50;8.35;;;4.32;;
22557;SDS011;11445;53.816;8.902;2023-06-10T03:44:18;13.55;;;4.93;;
22557;SDS011;11445;53.816;8.902;2023-06-10T03:46:45;9.63;;;4.85;;
22557;SDS011;11445;53.816;8.902;2023-06-10T03:49:12;8.68;;;4.10;;
22557;SDS011;11445;53.816;8.902;2023-06-10T03:51:40;13.38;;;4.85;;
22557;SDS011;11445;53.816;8.902;2023-06-10T03:54:08;12.68;;;4.18;;
22557;SDS011;11445;53.816;8.902;2023-06-10T03:56:36;11.25;;;4.68;;
22557;SDS011;11445;53.816;8.902;2023-06-10T03:59:03;8.88;;;4.38;;
22557;SDS011;11445;53.816;8.902;2023-06-10T04:01:30;13.70;;;4.25;;
22557;SDS011;11445;53.816;8.902;2023-06-10T04:03:58;10.80;;;3.78;;
22557;SDS011;11445;53.816;8.902;2023-06-10T04:06:26;12.63;;;4.15;;
22557;SDS011;11445;53.816;8.902;2023-06-10T04:08:54;12.15;;;4.40;;
22557;SDS011;11445;53.816;8.902;2023-06-10T04:11:23;6.80;;;4.22;;
22557;SDS011;11445;53.816;8.902;2023-06-10T04:13:51;14.23;;;4.30;;
22557;SDS011;11445;53.816;8.902;2023-06-10T04:16:18;6.78;;;3.60;;
22557;SDS011;11445;53.816;8.902;2023-06-10T04:18:46;10.70;;;4.32;;
22557;SDS011;11445;53.816;8.902;2023-06-10T04:21:13;8.88;;;3.67;;
22557;SDS011;11445;53.816;8.902;2023-06-10T04:23:40;8.50;;;3.88;;
22557;SDS011;11445;53.816;8.902;2023-06-10T04:26:07;9.73;;;4.25;;
22557;SDS011;11445;53.816;8.902;2023-06-10T04:28:37;9.32;;;4.65;;
22557;SDS011;11445;53.816;8.902;2023-06-10T04:31:04;14.27;;;4.88;;
22557;SDS011;11445;53.816;8.902;2023-06-10T04:33:31;11.82;;;4.28;;
22557;SDS011;11445;53.816;8.902;2023-06-10T04:35:58;15.02;;;4.50;;
22557;SDS011;11445;53.816;8.902;2023-06-10T04:38:26;8.07;;;4.15;;
22557;SDS011;11445;53.816;8.902;2023-06-10T04:40:53;10.00;;;4.07;;
22557;SDS011;11445;53.816;8.902;2023-06-10T04:43:20;7.00;;;3.92;;
22557;SDS011;11445;53.816;8.902;2023-06-10T04:45:49;11.90;;;4.20;;
22557;SDS011;11445;53.816;8.902;2023-06-10T04:48:16;11.73;;;4.88;;
22557;SDS011;11445;53.816;8.902;2023-06-10T04:50:43;9.82;;;4.00;;
22557;SDS011;11445;53.816;8.902;2023-06-10T04:53:10;12.43;;;4.82;;
22557;SDS011;11445;53.816;8.902;2023-06-10T04:55:37;13.27;;;4.70;;
22557;SDS011;11445;53.816;8.902;2023-06-10T04:58:04;11.90;;;4.60;;
22557;SDS011;11445;53.816;8.902;2023-06-10T05:00:31;12.75;;;4.30;;
22557;SDS011;11445;53.816;8.902;2023-06-10T05:03:00;11.48;;;4.28;;
22557;SDS011;11445;53.816;8.902;2023-06-10T05:05:27;11.80;;;4.28;;
22557;SDS011;11445;53.816;8.902;2023-06-10T05:07:54;7.57;;;4.05;;
22557;SDS011;11445;53.816;8.902;2023-06-10T05:10:21;6.65;;;3.72;;
22557;SDS011;11445;53.816;8.902;2023-06-10T05:12:48;10.32;;;4.63;;
22557;SDS011;11445;53.816;8.902;2023-06-10T05:15:15;8.85;;;3.28;;
22557;SDS011;11445;53.816;8.902;2023-06-10T05:17:42;7.57;;;3.60;;
22557;SDS011;11445;53.816;8.902;2023-06-10T05:20:11;7.80;;;4.20;;
22557;SDS011;11445;53.816;8.902;2023-06-10T05:22:40;7.13;;;3.88;;
22557;SDS011;11445;53.816;8.902;2023-06-10T05:25:07;18.83;;;4.47;;
22557;SDS011;11445;53.816;8.902;2023-06-10T05:27:35;8.57;;;3.78;;
22557;SDS011;11445;53.816;8.902;2023-06-10T05:30:03;8.38;;;3.70;;
22557;SDS011;11445;53.816;8.902;2023-06-10T05:32:32;10.35;;;3.70;;
22557;SDS011;11445;53.816;8.902;2023-06-10T05:34:59;12.80;;;3.92;;
22557;SDS011;11445;53.816;8.902;2023-06-10T05:37:28;11.70;;;4.07;;
22557;SDS011;11445;53.816;8.902;2023-06-10T05:39:56;9.13;;;3.85;;
22557;SDS011;11445;53.816;8.902;2023-06-10T05:42:23;10.35;;;3.80;;
22557;SDS011;11445;53.816;8.902;2023-06-10T05:44:50;9.90;;;3.95;;
22557;SDS011;11445;53.816;8.902;2023-06-10T05:47:17;7.20;;;3.45;;
22557;SDS011;11445;53.816;8.902;2023-06-10T05:49:44;9.15;;;3.63;;
22557;SDS011;11445;53.816;8.902;2023-06-10T05:52:13;11.43;;;3.55;;
22557;SDS011;11445;53.816;8.902;2023-06-10T05:54:42;14.48;;;3.47;;
22557;SDS011;11445;53.816;8.902;2023-06-10T05:57:09;8.43;;;3.70;;
22557;SDS011;11445;53.816;8.902;2023-06-10T05:59:36;8.65;;;3.53;;
22557;SDS011;11445;53.816;8.902;2023-06-10T06:02:03;12.82;;;3.17;;
22557;SDS011;11445;53.816;8.902;2023-06-10T06:04:31;12.40;;;3.10;;
22557;SDS011;11445;53.816;8.902;2023-06-10T06:06:58;7.70;;;3.17;;
22557;SDS011;11445;53.816;8.902;2023-06-10T06:09:25;9.00;;;3.20;;
22557;SDS011;11445;53.816;8.902;2023-06-10T06:11:54;12.27;;;3.50;;
22557;SDS011;11445;53.816;8.902;2023-06-10T06:14:21;8.48;;;2.95;;
22557;SDS011;11445;53.816;8.902;2023-06-10T06:16:48;8.95;;;3.00;;
22557;SDS011;11445;53.816;8.902;2023-06-10T06:19:15;16.08;;;3.40;;
22557;SDS011;11445;53.816;8.902;2023-06-10T06:21:42;8.88;;;2.95;;
22557;SDS011;11445;53.816;8.902;2023-06-10T06:24:09;11.23;;;2.90;;
22557;SDS011;11445;53.816;8.902;2023-06-10T06:26:36;10.60;;;2.60;;
22557;SDS011;11445;53.816;8.902;2023-06-10T06:29:05;8.60;;;2.75;;
22557;SDS011;11445;53.816;8.902;2023-06-10T06:31:32;5.57;;;2.30;;
22557;SDS011;11445;53.816;8.902;2023-06-10T06:33:59;13.13;;;3.25;;
22557;SDS011;11445;53.816;8.902;2023-06-10T06:36:26;6.43;;;2.50;;
22557;SDS011;11445;53.816;8.902;2023-06-10T06:38:53;8.63;;;2.70;;
22557;SDS011;11445;53.816;8.902;2023-06-10T06:41:20;10.40;;;2.92;;
22557;SDS011;11445;53.816;8.902;2023-06-10T06:43:48;7.15;;;2.22;;
22557;SDS011;11445;53.816;8.902;2023-06-10T06:46:16;7.78;;;2.40;;
22557;SDS011;11445;53.816;8.902;2023-06-10T06:48:44;5.80;;;2.30;;
22557;SDS011;11445;53.816;8.902;2023-06-10T06:51:11;12.52;;;2.30;;
22557;SDS011;11445;53.816;8.902;2023-06-10T06:53:38;11.32;;;2.45;;
22557;SDS011;11445;53.816;8.902;2023-06-10T06:56:09;7.40;;;2.10;;
22557;SDS011;11445;53.816;8.902;2023-06-10T06:58:36;10.57;;;3.10;;
22557;SDS011;11445;53.816;8.902;2023-06-10T07:01:04;9.82;;;2.20;;
22557;SDS011;11445;53.816;8.902;2023-06-10T07:03:32;10.35;;;2.20;;
22557;SDS011;11445;53.816;8.902;2023-06-10T07:05:59;9.20;;;2.20;;
22557;SDS011;11445;53.816;8.902;2023-06-10T07:08:26;5.90;;;2.17;;
22557;SDS011;11445;53.816;8.902;2023-06-10T07:10:54;7.65;;;2.40;;
22557;SDS011;11445;53.816;8.902;2023-06-10T07:13:21;8.43;;;2.83;;
22557;SDS011;11445;53.816;8.902;2023-06-10T07:15:48;10.18;;;2.80;;
22557;SDS011;11445;53.816;8.902;2023-06-10T07:18:15;10.60;;;2.92;;
22557;SDS011;11445;53.816;8.902;2023-06-10T07:20:43;9.57;;;2.67;;
22557;SDS011;11445;53.816;8.902;2023-06-10T07:23:11;8.10;;;2.92;;
22557;SDS011;11445;53.816;8.902;2023-06-10T07:25:38;9.77;;;2.67;;
22557;SDS011;11445;53.816;8.902;2023-06-10T07:28:05;10.27;;;3.17;;
22557;SDS011;11445;53.816;8.902;2023-06-10T07:30:32;9.80;;;3.25;;
22557;SDS011;11445;53.816;8.902;2023-06-10T07:32:59;9.25;;;2.80;;
22557;SDS011;11445;53.816;8.902;2023-06-10T07:35:27;9.48;;;2.47;;
22557;SDS011;11445;53.816;8.902;2023-06-10T07:37:56;7.78;;;2.65;;
22557;SDS011;11445;53.816;8.902;2023-06-10T07:40:23;7.97;;;2.13;;
22557;SDS011;11445;53.816;8.902;2023-06-10T07:42:50;8.35;;;2.35;;
22557;SDS011;11445;53.816;8.902;2023-06-10T07:45:18;7.22;;;2.20;;
22557;SDS011;11445;53.816;8.902;2023-06-10T07:47:45;6.97;;;2.28;;
22557;SDS011;11445;53.816;8.902;2023-06-10T07:50:12;9.63;;;2.40;;
22557;SDS011;11445;53.816;8.902;2023-06-10T07:52:39;5.68;;;2.38;;
22557;SDS011;11445;53.816;8.902;2023-06-10T07:55:08;9.82;;;2.50;;
22557;SDS011;11445;53.816;8.902;2023-06-10T07:57:35;8.10;;;2.58;;
22557;SDS011;11445;53.816;8.902;2023-06-10T08:00:04;13.80;;;2.90;;
22557;SDS011;11445;53.816;8.902;2023-06-10T08:02:32;8.68;;;2.55;;
22557;SDS011;11445;53.816;8.902;2023-06-10T08:04:59;13.25;;;2.22;;
22557;SDS011;11445;53.816;8.902;2023-06-10T08:07:26;10.15;;;2.42;;
22557;SDS011;11445;53.816;8.902;2023-06-10T08:09:53;8.95;;;3.05;;
22557;SDS011;11445;53.816;8.902;2023-06-10T08:12:22;10.52;;;2.40;;
22557;SDS011;11445;53.816;8.902;2023-06-10T08:14:49;9.43;;;2.25;;
22557;SDS011;11445;53.816;8.902;2023-06-10T08:17:16;10.82;;;2.70;;
22557;SDS011;11445;53.816;8.902;2023-06-10T08:19:43;5.35;;;2.35;;
22557;SDS011;11445;53.816;8.902;2023-06-10T08:22:10;7.70;;;2.08;;
22557;SDS011;11445;53.816;8.902;2023-06-10T08:24:37;7.65;;;2.55;;
22557;SDS011;11445;53.816;8.902;2023-06-10T08:27:04;12.77;;;2.40;;
22557;SDS011;11445;53.816;8.902;2023-06-10T08:29:33;8.27;;;2.55;;
22557;SDS011;11445;53.816;8.902;2023-06-10T08:32:00;8.98;;;2.55;;
22557;SDS011;11445;53.816;8.902;2023-06-10T08:34:28;8.43;;;2.22;;
22557;SDS011;11445;53.816;8.902;2023-06-10T08:36:55;5.00;;;2.35;;
22557;SDS011;11445;53.816;8.902;2023-06-10T08:39:22;6.50;;;2.25;;
22557;SDS011;11445;53.816;8.902;2023-06-10T08:41:51;8.82;;;2.70;;
22557;SDS011;11445;53.816;8.902;2023-06-10T08:44:29;7.03;;;2.50;;
22557;SDS011;11445;53.816;8.902;2023-06-10T08:47:00;9.98;;;2.65;;
22557;SDS011;11445;53.816;8.902;2023-06-10T08:49:28;9.32;;;2.72;;
22557;SDS011;11445;53.816;8.902;2023-06-10T08:52:00;6.15;;;2.92;;
22557;SDS011;11445;53.816;8.902;2023-06-10T08:54:31;11.55;;;2.85;;
22557;SDS011;11445;53.816;8.902;2023-06-10T08:57:03;17.30;;;2.80;;
22557;SDS011;11445;53.816;8.902;2023-06-10T08:59:32;9.55;;;2.90;;
22557;SDS011;11445;53.816;8.902;2023-06-10T09:02:00;8.93;;;3.03;;
22557;SDS011;11445;53.816;8.902;2023-06-10T09:04:28;7.03;;;2.63;;
22557;SDS011;11445;53.816;8.902;2023-06-10T09:06:56;6.03;;;2.50;;
22557;SDS011;11445;53.816;8.902;2023-06-10T09:09:24;13.43;;;2.90;;
22557;SDS011;11445;53.816;8.902;2023-06-10T09:11:55;10.07;;;3.00;;
22557;SDS011;11445;53.816;8.902;2023-06-10T09:14:22;12.95;;;2.90;;
22557;SDS011;11445;53.816;8.902;2023-06-10T09:16:49;8.18;;;3.20;;
22557;SDS011;11445;53.816;8.902;2023-06-10T09:19:18;5.47;;;2.50;;
22557;SDS011;11445;53.816;8.902;2023-06-10T09:21:46;7.97;;;3.00;;
22557;SDS011;11445;53.816;8.902;2023-06-10T09:24:13;7.72;;;2.78;;
22557;SDS011;11445;53.816;8.902;2023-06-10T09:26:41;9.13;;;2.70;;
22557;SDS011;11445;53.816;8.902;2023-06-10T09:29:09;7.85;;;2.90;;
22557;SDS011;11445;53.816;8.902;2023-06-10T09:31:37;8.90;;;3.05;;
22557;SDS011;11445;53.816;8.902;2023-06-10T09:34:06;7.88;;;3.17;;
22557;SDS011;11445;53.816;8.902;2023-06-10T09:36:36;12.40;;;3.08;;
22557;SDS011;11445;53.816;8.902;2023-06-10T09:39:05;9.80;;;3.25;;
22557;SDS011;11445;53.816;8.902;2023-06-10T09:41:40;9.98;;;3.38;;
22557;SDS011;11445;53.816;8.902;2023-06-10T09:44:09;65.05;;;4.57;;
22557;SDS011;11445;53.816;8.902;2023-06-10T09:46:39;15.13;;;3.53;;
22557;SDS011;11445;53.816;8.902;2023-06-10T09:49:06;8.32;;;3.10;;
22557;SDS011;11445;53.816;8.902;2023-06-10T09:51:34;5.78;;;3.13;;
22557;SDS011;11445;53.816;8.902;2023-06-10T09:54:03;11.55;;;3.17;;
22557;SDS011;11445;53.816;8.902;2023-06-10T09:56:33;10.40;;;2.90;;
22557;SDS011;11445;53.816;8.902;2023-06-10T09:59:01;5.15;;;2.53;;
22557;SDS011;11445;53.816;8.902;2023-06-10T10:01:31;9.32;;;2.92;;
22557;SDS011;11445;53.816;8.902;2023-06-10T10:03:59;6.28;;;2.70;;
22557;SDS011;11445;53.816;8.902;2023-06-10T10:06:26;11.93;;;2.67;;
22557;SDS011;11445;53.816;8.902;2023-06-10T10:08:55;9.85;;;2.63;;
22557;SDS011;11445;53.816;8.902;2023-06-10T10:11:23;11.77;;;3.58;;
22557;SDS011;11445;53.816;8.902;2023-06-10T10:13:52;12.82;;;3.30;;
22557;SDS011;11445;53.816;8.902;2023-06-10T10:16:20;9.27;;;2.80;;
22557;SDS011;11445;53.816;8.902;2023-06-10T10:18:49;8.98;;;3.28;;
22557;SDS011;11445;53.816;8.902;2023-06-10T10:21:22;12.75;;;3.85;;
22557;SDS011;11445;53.816;8.902;2023-06-10T10:23:53;9.43;;;2.72;;
22557;SDS011;11445;53.816;8.902;2023-06-10T10:26:25;8.68;;;3.08;;
22557;SDS011;11445;53.816;8.902;2023-06-10T10:29:07;13.85;;;3.15;;
22557;SDS011;11445;53.816;8.902;2023-06-10T10:31:39;8.82;;;3.90;;
22557;SDS011;11445;53.816;8.902;2023-06-10T10:34:09;7.63;;;3.35;;
22557;SDS011;11445;53.816;8.902;2023-06-10T10:36:41;7.95;;;2.80;;
22557;SDS011;11445;53.816;8.902;2023-06-10T10:39:09;10.40;;;3.35;;
22557;SDS011;11445;53.816;8.902;2023-06-10T10:41:38;11.93;;;3.05;;
22557;SDS011;11445;53.816;8.902;2023-06-10T10:44:06;15.75;;;4.03;;
22557;SDS011;11445;53.816;8.902;2023-06-10T10:46:41;6.82;;;2.70;;
22557;SDS011;11445;53.816;8.902;2023-06-10T10:49:10;13.20;;;3.40;;
22557;SDS011;11445;53.816;8.902;2023-06-10T10:51:53;11.52;;;3.05;;
22557;SDS011;11445;53.816;8.902;2023-06-10T10:54:27;11.80;;;3.15;;
22557;SDS011;11445;53.816;8.902;2023-06-10T10:57:14;10.35;;;3.15;;
22557;SDS011;11445;53.816;8.902;2023-06-10T10:59:52;6.95;;;2.53;;
22557;SDS011;11445;53.816;8.902;2023-06-10T11:02:32;11.70;;;2.80;;
22557;SDS011;11445;53.816;8.902;2023-06-10T11:05:03;8.05;;;3.10;;
22557;SDS011;11445;53.816;8.902;2023-06-10T11:07:31;8.98;;;3.35;;
22557;SDS011;11445;53.816;8.902;2023-06-10T11:10:00;8.55;;;3.22;;
22557;SDS011;11445;53.816;8.902;2023-06-10T11:15:24;12.23;;;3.33;;
22557;SDS011;11445;53.816;8.902;2023-06-10T11:20:55;8.48;;;2.63;;
22557;SDS011;11445;53.816;8.902;2023-06-10T11:29:02;7.50;;;2.50;;
22557;SDS011;11445;53.816;8.902;2023-06-10T11:31:33;4.82;;;2.63;;
22557;SDS011;11445;53.816;8.902;2023-06-10T11:34:05;7.80;;;2.75;;
22557;SDS011;11445;53.816;8.902;2023-06-10T11:36:33;9.30;;;2.80;;
22557;SDS011;11445;53.816;8.902;2023-06-10T11:39:03;9.98;;;3.78;;
22557;SDS011;11445;53.816;8.902;2023-06-10T11:41:31;11.40;;;2.55;;
22557;SDS011;11445;53.816;8.902;2023-06-10T11:44:02;10.45;;;2.63;;
22557;SDS011;11445;53.816;8.902;2023-06-10T11:46:30;7.05;;;2.95;;
22557;SDS011;11445;53.816;8.902;2023-06-10T11:48:58;10.05;;;3.17;;
22557;SDS011;11445;53.816;8.902;2023-06-10T11:51:26;7.22;;;2.50;;
22557;SDS011;11445;53.816;8.902;2023-06-10T11:53:55;5.80;;;2.35;;
22557;SDS011;11445;53.816;8.902;2023-06-10T11:56:22;4.60;;;2.33;;
22557;SDS011;11445;53.816;8.902;2023-06-10T11:58:54;6.60;;;2.38;;
22557;SDS011;11445;53.816;8.902;2023-06-10T12:01:24;8.40;;;2.80;;
22557;SDS011;11445;53.816;8.902;2023-06-10T12:03:58;6.22;;;2.40;;
22557;SDS011;11445;53.816;8.902;2023-06-10T12:06:39;6.05;;;2.60;;
22557;SDS011;11445;53.816;8.902;2023-06-10T12:09:12;10.30;;;3.33;;
22557;SDS011;11445;53.816;8.902;2023-06-10T12:11:40;6.33;;;2.80;;
22557;SDS011;11445;53.816;8.902;2023-06-10T12:14:08;8.65;;;2.85;;
22557;SDS011;11445;53.816;8.902;2023-06-10T12:16:37;4.25;;;2.30;;
22557;SDS011;11445;53.816;8.902;2023-06-10T12:19:05;4.93;;;2.40;;
22557;SDS011;11445;53.816;8.902;2023-06-10T12:21:33;8.45;;;2.90;;
22557;SDS011;11445;53.816;8.902;2023-06-10T12:24:05;7.35;;;2.35;;
22557;SDS011;11445;53.816;8.902;2023-06-10T12:26:34;9.50;;;2.63;;
22557;SDS011;11445;53.816;8.902;2023-06-10T12:29:02;5.45;;;2.67;;
22557;SDS011;11445;53.816;8.902;2023-06-10T12:31:54;9.52;;;2.50;;
22557;SDS011;11445;53.816;8.902;2023-06-10T12:34:31;18.90;;;3.22;;
22557;SDS011;11445;53.816;8.902;2023-06-10T12:37:03;6.45;;;2.80;;
22557;SDS011;11445;53.816;8.902;2023-06-10T12:39:32;8.68;;;2.88;;
22557;SDS011;11445;53.816;8.902;2023-06-10T12:41:59;8.00;;;3.30;;
22557;SDS011;11445;53.816;8.902;2023-06-10T12:44:34;6.90;;;2.65;;
22557;SDS011;11445;53.816;8.902;2023-06-10T12:47:08;9.55;;;2.83;;
22557;SDS011;11445;53.816;8.902;2023-06-10T12:49:37;5.90;;;2.55;;
22557;SDS011;11445;53.816;8.902;2023-06-10T12:52:05;7.80;;;2.70;;
22557;SDS011;11445;53.816;8.902;2023-06-10T12:54:32;5.40;;;2.47;;
22557;SDS011;11445;53.816;8.902;2023-06-10T12:57:00;6.20;;;3.08;;
22557;SDS011;11445;53.816;8.902;2023-06-10T12:59:27;4.35;;;2.38;;
22557;SDS011;11445;53.816;8.902;2023-06-10T13:01:54;9.32;;;2.83;;
22557;SDS011;11445;53.816;8.902;2023-06-10T13:04:23;7.72;;;3.05;;
22557;SDS011;11445;53.816;8.902;2023-06-10T13:06:50;6.25;;;2.90;;
22557;SDS011;11445;53.816;8.902;2023-06-10T13:09:17;6.88;;;2.92;;
22557;SDS011;11445;53.816;8.902;2023-06-10T13:11:44;14.18;;;3.50;;
22557;SDS011;11445;53.816;8.902;2023-06-10T13:14:11;8.38;;;2.80;;
22557;SDS011;11445;53.816;8.902;2023-06-10T13:16:38;10.20;;;3.40;;
22557;SDS011;11445;53.816;8.902;2023-06-10T13:19:06;9.75;;;2.60;;
22557;SDS011;11445;53.816;8.902;2023-06-10T13:21:34;9.32;;;2.70;;
22557;SDS011;11445;53.816;8.902;2023-06-10T13:24:02;13.60;;;3.25;;
22557;SDS011;11445;53.816;8.902;2023-06-10T13:26:29;10.63;;;3.40;;
22557;SDS011;11445;53.816;8.902;2023-06-10T13:28:56;9.00;;;3.33;;
22557;SDS011;11445;53.816;8.902;2023-06-10T13:31:23;12.07;;;3.33;;
22557;SDS011;11445;53.816;8.902;2023-06-10T13:33:51;9.13;;;3.75;;
22557;SDS011;11445;53.816;8.902;2023-06-10T13:36:18;19.67;;;3.78;;
22557;SDS011;11445;53.816;8.902;2023-06-10T13:38:46;8.50;;;2.90;;
22557;SDS011;11445;53.816;8.902;2023-06-10T13:41:13;7.70;;;3.22;;
22557;SDS011;11445;53.816;8.902;2023-06-10T13:43:40;15.20;;;3.33;;
22557;SDS011;11445;53.816;8.902;2023-06-10T13:46:08;7.65;;;2.95;;
22557;SDS011;11445;53.816;8.902;2023-06-10T13:48:35;18.52;;;3.90;;
22557;SDS011;11445;53.816;8.902;2023-06-10T13:51:02;5.57;;;3.28;;
22557;SDS011;11445;53.816;8.902;2023-06-10T13:53:29;12.30;;;3.53;;
22557;SDS011;11445;53.816;8.902;2023-06-10T13:55:58;7.18;;;3.10;;
22557;SDS011;11445;53.816;8.902;2023-06-10T13:58:25;6.85;;;3.00;;
22557;SDS011;11445;53.816;8.902;2023-06-10T14:00:52;6.25;;;3.50;;
22557;SDS011;11445;53.816;8.902;2023-06-10T14:03:19;7.55;;;3.30;;
22557;SDS011;11445;53.816;8.902;2023-06-10T14:05:46;11.63;;;3.58;;
22557;SDS011;11445;53.816;8.902;2023-06-10T14:08:13;8.20;;;3.50;;
22557;SDS011;11445;53.816;8.902;2023-06-10T14:10:41;8.88;;;3.72;;
22557;SDS011;11445;53.816;8.902;2023-06-10T14:13:09;9.13;;;3.63;;
22557;SDS011;11445;53.816;8.902;2023-06-10T14:15:36;10.65;;;3.95;;
22557;SDS011;11445;53.816;8.902;2023-06-10T14:18:04;7.70;;;3.67;;
22557;SDS011;11445;53.816;8.902;2023-06-10T14:20:31;8.55;;;3.97;;
22557;SDS011;11445;53.816;8.902;2023-06-10T14:22:58;11.95;;;3.92;;
22557;SDS011;11445;53.816;8.902;2023-06-10T14:25:25;9.02;;;3.67;;
22557;SDS011;11445;53.816;8.902;2023-06-10T14:27:52;9.52;;;3.97;;
22557;SDS011;11445;53.816;8.902;2023-06-10T14:30:21;5.82;;;3.53;;
22557;SDS011;11445;53.816;8.902;2023-06-10T14:32:48;10.35;;;4.30;;
22557;SDS011;11445;53.816;8.902;2023-06-10T14:35:15;11.75;;;3.83;;
22557;SDS011;11445;53.816;8.902;2023-06-10T14:37:42;9.73;;;4.10;;
22557;SDS011;11445;53.816;8.902;2023-06-10T14:40:09;10.32;;;4.22;;
22557;SDS011;11445;53.816;8.902;2023-06-10T14:42:37;6.07;;;3.75;;
22557;SDS011;11445;53.816;8.902;2023-06-10T14:45:04;10.85;;;4.47;;
22557;SDS011;11445;53.816;8.902;2023-06-10T14:47:34;9.77;;;4.68;;
22557;SDS011;11445;53.816;8.902;2023-06-10T14:50:01;7.80;;;4.30;;
22557;SDS011;11445;53.816;8.902;2023-06-10T14:52:28;7.95;;;4.38;;
22557;SDS011;11445;53.816;8.902;2023-06-10T14:54:55;9.05;;;4.45;;
22557;SDS011;11445;53.816;8.902;2023-06-10T14:57:22;11.30;;;4.40;;
22557;SDS011;11445;53.816;8.902;2023-06-10T14:59:49;13.95;;;4.90;;